Monday, November 20, 2017, 2:19 AM EST
Back to Local

KJYO, Leesburg / Godfrey

Location: Leesburg, VA, United States Lat: 39.083
Local Time: 2:19 AM EST ( 7:19 GMT) Lon: -77.567
Time Zone: US/Eastern Elev: 390 ft

Show me the last for .
Show Coded

Time T Td Feel RH Dir Speed Gust Alt SLP Vis Weather Sky Remarks
2017-11-20 01:55 41 28 30 60 310° 14 28 30.02 - 10 OVC050 None
2017-11-20 01:35 41 28 30 60 300° 21 30 30.02 - 10 OVC050 None
2017-11-20 01:15 41 30 31 65 300° 17 22 30.01 - 10 BKN050 None
2017-11-20 00:55 41 32 35 70 310° 10 - 30.01 - 10 SCT050 BKN055 None
2017-11-20 00:35 41 32 35 70 320° 10 - 30.00 - 10 BKN050 OVC055 None
2017-11-20 00:15 41 32 37 70 330° 6 - 29.99 - 10 BKN049 OVC055 None
2017-11-19 23:55 41 32 36 70 330° 8 - 29.98 - 10 OVC060 None
2017-11-19 23:35 41 32 37 70 350° 6 - 29.98 - 10 OVC060 None
2017-11-19 23:15 41 32 36 70 330° 7 - 29.97 - 10 SCT045 BKN050 BKN070 None
2017-11-19 22:55 43 32 38 65 330° 8 - 29.97 - 10 BKN044 OVC050 None
2017-11-19 22:35 43 32 37 65 310° 9 - 29.96 - 10 SCT041 BKN050 OVC065 None
2017-11-19 22:15 43 32 33 65 310° 16 24 29.95 - 10 OVC065 None
2017-11-19 21:55 43 32 34 65 300° 18 23 29.94 - 10 OVC065 None
2017-11-19 21:35 43 32 33 65 300° 18 26 29.94 - 10 BKN065 BKN075 None
2017-11-19 21:15 43 32 34 65 300° 16 23 29.93 - 10 SCT075 None
2017-11-19 20:55 43 32 35 65 300° 15 - 29.93 - 10 SCT050 OVC065 None
2017-11-19 20:35 43 32 34 65 300° 12 20 29.92 - 10 BKN050 OVC065 None
2017-11-19 20:15 43 32 35 65 290° 12 17 29.91 - 10 SCT055 OVC075 None
2017-11-19 19:55 43 32 34 65 290° 12 20 29.91 - 10 OVC075 None
2017-11-19 19:35 43 32 35 65 280° 10 18 29.90 - 10 SCT041 BKN065 OVC075 None
2017-11-19 19:15 45 32 35 61 300° 16 29 29.89 - 10 SCT044 SCT050 OVC070 None
2017-11-19 18:55 45 32 35 61 300° 13 28 29.89 - 10 SCT048 SCT060 BKN070 None
2017-11-19 18:35 45 32 37 61 300° 10 18 29.88 - 10 SCT048 OVC065 None
2017-11-19 18:15 45 32 37 61 300° 9 18 29.87 - 10 OVC065 None
2017-11-19 17:55 45 32 36 61 300° 10 21 29.86 - 10 SCT055 OVC065 None
2017-11-19 17:35 45 32 36 61 300° 15 21 29.86 - 10 SCT060 OVC065 None
2017-11-19 17:15 45 32 41 61 280° 7 - 29.85 - 10 BKN060 None
2017-11-19 16:55 45 30 37 56 300° 13 18 29.84 - 10 SCT050 BKN060 None
2017-11-19 16:35 45 32 38 61 300° 8 14 29.84 - 10 SCT049 BKN060 OVC070 None
2017-11-19 16:15 45 32 35 61 300° 16 30 29.83 - 10 BKN060 BKN070 None
2017-11-19 15:55 45 32 35 61 310° 18 26 29.82 - 10 SCT050 OVC060 None
2017-11-19 15:35 45 32 36 61 300° 13 23 29.81 - 10 OVC050 None
2017-11-19 15:15 46 32 38 56 300° 14 25 29.80 - 10 OVC050 None
2017-11-19 14:55 46 32 39 56 300° 15 21 29.79 - 10 OVC050 None
2017-11-19 14:35 46 30 38 52 320° 15 25 29.79 - 10 OVC050 None
2017-11-19 14:15 46 32 38 56 340° 17 26 29.79 - 10 OVC050 None
2017-11-19 13:55 46 32 37 56 310° 18 32 29.78 - 10 BKN047 OVC050 None
2017-11-19 13:35 46 32 38 56 320° 22 28 29.77 - 10 BKN047 OVC050 None
2017-11-19 13:15 46 32 37 56 320° 15 33 29.77 - 10 BKN048 OVC055 None
2017-11-19 12:55 50 32 42 49 290° 14 30 29.77 - 10 OVC050 None
2017-11-19 12:35 48 32 39 53 300° 24 32 29.77 - 10 BKN050 None
2017-11-19 12:15 46 32 37 56 290° 24 35 29.77 - 10 OVC046 None
2017-11-19 11:55 46 34 36 61 300° 25 36 29.77 - 10 SCT044 OVC050 None
2017-11-19 11:35 48 34 39 57 310° 25 32 29.76 - 10 OVC047 None
2017-11-19 11:15 50 34 42 53 320° 21 30 29.75 - 10 OVC047 None
2017-11-19 10:55 50 34 41 53 330° 23 35 29.74 - 10 OVC047 None
2017-11-19 10:35 48 34 39 57 310° 18 31 29.74 - 10 OVC046 None
2017-11-19 10:15 48 36 39 61 300° 26 37 29.72 - 10 OVC046 None
2017-11-19 09:55 46 36 36 65 300° 29 40 29.71 - 10 SCT043 OVC049 None
2017-11-19 09:35 48 36 39 61 310° 29 35 29.70 - 10 OVC042 None
2017-11-19 09:15 50 37 41 61 300° 28 35 29.69 - 10 OVC042 None
2017-11-19 08:55 48 36 40 61 320° 20 26 29.69 - 10 OVC040 None
2017-11-19 08:35 48 36 40 61 300° 20 30 29.69 - 10 OVC040 None
2017-11-19 08:15 46 36 37 65 300° 20 35 29.67 - 10 OVC042 None
2017-11-19 07:55 46 34 37 61 320° 23 31 29.65 - 10 BKN044 OVC050 None
2017-11-19 07:35 46 34 36 61 310° 17 36 29.63 - 10 BKN044 None
2017-11-19 07:15 46 34 37 61 300° 23 31 29.62 - 10 BKN044 None
2017-11-19 06:55 46 34 36 61 310° 26 36 29.60 - 10 BKN044 None
2017-11-19 06:35 46 36 38 65 310° 16 25 29.59 - 10 SCT044 SCT050 None
2017-11-19 06:15 46 36 37 65 310° 20 31 29.57 - 10 BKN049 None
2017-11-19 05:55 50 37 42 61 280° 17 28 29.55 - 10 SCT049 SCT055 None
2017-11-19 05:35 50 37 41 61 310° 31 41 29.52 - 10 CLR None
2017-11-19 05:15 52 39 - 62 310° 36 44 29.50 - 10 CLR None
2017-11-19 04:55 52 41 - 66 310° 31 46 29.45 - 10 SCT065 SCT080 None
2017-11-19 04:35 55 45 - 66 320° 21 38 29.44 - 10 SCT043 BKN055 BKN065 None
2017-11-19 04:15 57 50 - 76 310° 30 39 29.40 - 10 SCT043 OVC060 None
2017-11-19 03:55 57 54 - 87 270° 16 25 29.37 - 10 -RA SCT024 SCT039 OVC050 1-hr Precip Total: 0.02"
2017-11-19 03:35 59 55 - 87 260° 17 30 29.37 - 7 RA SCT026 SCT039 OVC060 1-hr Precip Total: 0.01"
2017-11-19 03:15 59 55 - 87 220° 10 18 29.33 - 10 BKN065 BKN080 None
2017-11-19 02:55 59 55 - 87 220° 15 - 29.32 - 10 SCT075 None
2017-11-19 02:35 57 55 - 93 210° 14 - 29.31 - 10 CLR None

Support USWX by starting your Amazon purchase here.